Maersk Barry — OYJE2 — position and weather

sailwx.info

Track history (hours):
 
Tides and Currents Weather Stations Pressure Air Temp Water Temp Dewpoint Dewpoint Depression Visibility Wind Speed Wind Dir Waves Ship Positions

Maersk Barry

Last reported at 2015-Feb-07 06:33 UTC. Time now 2015-Mar-31 22:04 UTC.
Position N 37°22' W 000°26'.
Warning: this ship's position is 52 days out of date.

Length 175 m; draft 9.5 m.

Type: Tanker. MMSI: 219127000.

Date/timePositionNaut miles runAvg speedWind from/ knotsBaromVisibWave heightAir tempDewpointWater temp
2015-Feb-07 06:33N 37°22' W 000°26'1313.5
2015-Feb-07 05:33N 37°26' W 000°43'1312.4
2015-Feb-07 04:32N 37°31' W 000°57'3 0.1
2015-Feb-05 06:19N 37°34' W 000°59'4 4.9
2015-Feb-05 05:32N 37°31' W 001°02'1511.1
2015-Feb-05 04:10N 37°19' W 001°14'20911.9
2015-Feb-04 10:34N 36°03' W 005°17'7 0.4
2015-Feb-03 17:24N 36°08' W 005°24'8 9.4
2015-Feb-03 16:33N 36°00' W 005°22'26711.1
2015-Feb-02 16:33N 38°21' W 010°06'1513.8
2015-Feb-02 15:29N 38°35' W 010°10'  
2015-Jan-30 20:33N 43°30' W 003°09'7 7.2
2015-Jan-30 19:33N 43°23' W 003°05'1 0.1
2015-Jan-29 21:09N 43°22' W 003°05'0 0.0
2015-Jan-29 20:33N 43°22' W 003°05'0 0.0
2015-Jan-29 19:33N 43°22' W 003°05'0 0.0
2015-Jan-29 18:33N 43°22' W 003°05'0 0.0
2015-Jan-29 17:33N 43°22' W 003°05'0 0.0
2015-Jan-29 16:33N 43°22' W 003°05'0 0.0
2015-Jan-29 15:33N 43°22' W 003°05'0 0.0
2015-Jan-29 14:33N 43°22' W 003°05'0 0.0
2015-Jan-29 13:33N 43°22' W 003°05'0 0.0
2015-Jan-29 12:33N 43°22' W 003°05'0 0.0
2015-Jan-29 11:33N 43°22' W 003°05'0 0.0
2015-Jan-29 10:33N 43°22' W 003°05'0 0.0
2015-Jan-29 09:33N 43°22' W 003°05'0 0.0
2015-Jan-29 08:33N 43°22' W 003°05'0 0.0
2015-Jan-29 07:33N 43°22' W 003°05'0 0.0
2015-Jan-29 06:33N 43°22' W 003°05'0 0.0
2015-Jan-29 05:33N 43°22' W 003°05'0 0.0
2015-Jan-29 04:33N 43°22' W 003°05'0 0.0
2015-Jan-29 03:33N 43°22' W 003°05'0 0.0
2015-Jan-29 02:30N 43°22' W 003°05'0 0.0
2015-Jan-29 01:33N 43°22' W 003°05'0 0.0
2015-Jan-29 00:33N 43°22' W 003°05'0 0.0
2015-Jan-28 23:33N 43°22' W 003°05'0 0.0
2015-Jan-28 22:33N 43°22' W 003°05'0 0.0
2015-Jan-28 21:33N 43°22' W 003°05'0 0.0
2015-Jan-28 20:33N 43°22' W 003°05'0 0.0
2015-Jan-28 19:33N 43°22' W 003°05'0 0.0
2015-Jan-28 18:33N 43°22' W 003°05'0 0.0
2015-Jan-28 17:33N 43°22' W 003°05'0 0.0
2015-Jan-28 16:33N 43°22' W 003°05'0 0.0
2015-Jan-28 15:33N 43°22' W 003°05'0 0.0
2015-Jan-28 14:33N 43°22' W 003°05'0 0.0
2015-Jan-28 13:33N 43°22' W 003°05'0 0.0
2015-Jan-28 12:33N 43°22' W 003°05'0 0.0
2015-Jan-28 11:33N 43°22' W 003°05'0 0.0
2015-Jan-28 10:33N 43°22' W 003°05'0 0.0
2015-Jan-28 09:33N 43°22' W 003°05'0 0.0
2015-Jan-28 08:33N 43°22' W 003°05'0 0.0
2015-Jan-28 07:33N 43°22' W 003°05'  
Track history (hours):
 
Tides and Currents Weather Stations Pressure Air Temp Water Temp Dewpoint Dewpoint Depression Visibility Wind Speed Wind Dir Waves Ship Positions

Maersk Barry

Last reported at 2015-Feb-07 06:33 UTC. Time now 2015-Mar-31 22:04 UTC.
Position N 37°22' W 000°26'.
Warning: this ship's position is 52 days out of date.

Length 175 m; draft 9.5 m.

Type: Tanker. MMSI: 219127000.

Date/timePositionNaut miles runAvg speedWind from/ knotsBaromVisibWave heightAir tempDewpointWater temp
2015-Feb-07 06:33N 37°22' W 000°26'1313.5
2015-Feb-07 05:33N 37°26' W 000°43'1312.4
2015-Feb-07 04:32N 37°31' W 000°57'3 0.1
2015-Feb-05 06:19N 37°34' W 000°59'4 4.9
2015-Feb-05 05:32N 37°31' W 001°02'1511.1
2015-Feb-05 04:10N 37°19' W 001°14'20911.9
2015-Feb-04 10:34N 36°03' W 005°17'7 0.4
2015-Feb-03 17:24N 36°08' W 005°24'8 9.4
2015-Feb-03 16:33N 36°00' W 005°22'26711.1
2015-Feb-02 16:33N 38°21' W 010°06'1513.8
2015-Feb-02 15:29N 38°35' W 010°10'  
2015-Jan-30 20:33N 43°30' W 003°09'7 7.2
2015-Jan-30 19:33N 43°23' W 003°05'1 0.1
2015-Jan-29 21:09N 43°22' W 003°05'0 0.0
2015-Jan-29 20:33N 43°22' W 003°05'0 0.0
2015-Jan-29 19:33N 43°22' W 003°05'0 0.0
2015-Jan-29 18:33N 43°22' W 003°05'0 0.0
2015-Jan-29 17:33N 43°22' W 003°05'0 0.0
2015-Jan-29 16:33N 43°22' W 003°05'0 0.0
2015-Jan-29 15:33N 43°22' W 003°05'0 0.0
2015-Jan-29 14:33N 43°22' W 003°05'0 0.0
2015-Jan-29 13:33N 43°22' W 003°05'0 0.0
2015-Jan-29 12:33N 43°22' W 003°05'0 0.0
2015-Jan-29 11:33N 43°22' W 003°05'0 0.0
2015-Jan-29 10:33N 43°22' W 003°05'0 0.0
2015-Jan-29 09:33N 43°22' W 003°05'0 0.0
2015-Jan-29 08:33N 43°22' W 003°05'0 0.0
2015-Jan-29 07:33N 43°22' W 003°05'0 0.0
2015-Jan-29 06:33N 43°22' W 003°05'0 0.0
2015-Jan-29 05:33N 43°22' W 003°05'0 0.0
2015-Jan-29 04:33N 43°22' W 003°05'0 0.0
2015-Jan-29 03:33N 43°22' W 003°05'0 0.0
2015-Jan-29 02:30N 43°22' W 003°05'0 0.0
2015-Jan-29 01:33N 43°22' W 003°05'0 0.0
2015-Jan-29 00:33N 43°22' W 003°05'0 0.0
2015-Jan-28 23:33N 43°22' W 003°05'0 0.0
2015-Jan-28 22:33N 43°22' W 003°05'0 0.0
2015-Jan-28 21:33N 43°22' W 003°05'0 0.0
2015-Jan-28 20:33N 43°22' W 003°05'0 0.0
2015-Jan-28 19:33N 43°22' W 003°05'0 0.0
2015-Jan-28 18:33N 43°22' W 003°05'0 0.0
2015-Jan-28 17:33N 43°22' W 003°05'0 0.0
2015-Jan-28 16:33N 43°22' W 003°05'0 0.0
2015-Jan-28 15:33N 43°22' W 003°05'0 0.0
2015-Jan-28 14:33N 43°22' W 003°05'0 0.0
2015-Jan-28 13:33N 43°22' W 003°05'0 0.0
2015-Jan-28 12:33N 43°22' W 003°05'0 0.0
2015-Jan-28 11:33N 43°22' W 003°05'0 0.0
2015-Jan-28 10:33N 43°22' W 003°05'0 0.0
2015-Jan-28 09:33N 43°22' W 003°05'0 0.0
2015-Jan-28 08:33N 43°22' W 003°05'0 0.0
2015-Jan-28 07:33N 43°22' W 003°05'  

Dump ship's entire track history